Time;durP1;ratioP1;P1;durP2;ratioP2;P2;SDS_P1;SDS_P2;PMS_P1;PMS_P2;Temp;Humidity;BMP_temperature;BMP_pressure;BME280_temperature;BME280_humidity;BME280_pressure;Samples;Min_cycle;Max_cycle;Signal;HPM_P1;HPM_P2
2024/04/12 00:01:06;;;;;;;3.60;2.60;;;;;;;22.27;43.36;102177.09;4898685;26;20015;-49
2024/04/12 00:03:17;;;;;;;3.47;2.50;;;;;;;22.27;42.99;102177.09;4898539;26;20026;-48
2024/04/12 00:05:28;;;;;;;3.20;2.20;;;;;;;22.27;43.32;102185.72;4896044;26;20007;-48
2024/04/12 00:07:38;;;;;;;3.63;2.67;;;;;;;22.27;43.37;102168.47;4897339;26;20010;-48
2024/04/12 00:09:54;;;;;;;4.03;3.13;;;;;;;22.27;43.31;102177.09;4900755;25;20007;-52
2024/04/12 00:12:05;;;;;;;4.07;3.38;;;;;;;22.25;43.15;102165.94;4897342;26;20079;-47
2024/04/12 00:14:16;;;;;;;4.00;3.25;;;;;;;22.25;42.86;102177.44;4899888;26;20474;-48
2024/04/12 00:16:28;;;;;;;3.90;3.25;;;;;;;22.26;43.08;102166.78;4898570;25;20007;-52
2024/04/12 00:18:39;;;;;;;3.95;3.35;;;;;;;22.25;43.28;102162.22;4900407;26;20011;-48
2024/04/12 00:20:51;;;;;;;4.80;3.85;;;;;;;22.25;43.14;102171.69;4897000;25;20006;-48
2024/04/12 00:23:02;;;;;;;5.03;3.10;;;;;;;22.23;43.11;102160.53;4897114;26;20740;-52
2024/04/12 00:25:13;;;;;;;4.13;3.30;;;;;;;22.25;43.20;102162.22;4896696;26;20080;-52
2024/04/12 00:27:25;;;;;;;3.80;2.97;;;;;;;22.23;43.17;102161.72;4895186;26;20053;-49
2024/04/12 00:29:38;;;;;;;4.63;3.67;;;;;;;22.23;43.09;102155.97;4898900;26;20003;-47
2024/04/12 00:31:52;;;;;;;5.07;3.80;;;;;;;22.23;43.27;102154.75;4898363;26;20003;-49
2024/04/12 00:34:04;;;;;;;4.35;3.50;;;;;;;22.23;43.29;102155.97;4896154;26;20011;-48
2024/04/12 00:36:17;;;;;;;4.05;3.33;;;;;;;22.23;43.45;102150.22;4897260;26;20010;-49
2024/04/12 00:38:27;;;;;;;3.38;2.90;;;;;;;22.22;43.40;102143.59;4897377;25;20007;-48
2024/04/12 00:40:45;;;;;;;4.05;3.28;;;;;;;22.21;43.43;102141.94;4901198;25;20455;-51
2024/04/12 00:42:57;;;;;;;4.32;2.85;;;;;;;22.19;43.27;102132.78;4901363;26;20003;-50
2024/04/12 00:45:12;;;;;;;4.70;3.00;;;;;;;22.20;43.48;102132.44;4900444;26;21504;-48
2024/04/12 00:47:27;;;;;;;4.07;3.08;;;;;;;22.21;43.20;102134.13;4903552;20;20081;-55
2024/04/12 00:49:43;;;;;;;3.63;3.05;;;;;;;22.20;43.44;102141.06;4869409;26;20017;-53
2024/04/12 00:51:54;;;;;;;2.90;2.60;;;;;;;22.20;43.50;102134.47;4865132;26;20012;-55
2024/04/12 00:54:07;;;;;;;3.90;2.88;;;;;;;22.20;43.24;102132.44;4867493;26;20476;-55
2024/04/12 00:56:17;;;;;;;3.60;2.70;;;;;;;22.20;43.45;102128.72;4862529;26;20059;-54
2024/04/12 00:58:32;;;;;;;3.30;2.80;;;;;;;22.19;43.49;102133.63;4866802;26;20634;-53
2024/04/12 01:00:46;;;;;;;3.15;2.58;;;;;;;22.19;43.29;102132.78;4867412;26;20030;-55
2024/04/12 01:02:58;;;;;;;2.70;2.30;;;;;;;22.19;43.38;102136.50;4866826;26;21710;-55
2024/04/12 01:05:12;;;;;;;3.28;2.53;;;;;;;22.18;43.39;102131.94;4865032;26;20011;-54
2024/04/12 01:07:23;;;;;;;2.80;2.45;;;;;;;22.18;43.36;102131.94;4869009;26;20140;-55
2024/04/12 01:09:35;;;;;;;2.75;2.30;;;;;;;22.18;43.14;102134.81;4869964;26;20406;-56
2024/04/12 01:11:47;;;;;;;2.67;2.20;;;;;;;22.18;43.39;102131.09;4865318;26;20011;-54
2024/04/12 01:13:58;;;;;;;2.50;2.10;;;;;;;22.18;43.55;102131.94;4869595;26;20008;-53
2024/04/12 01:16:10;;;;;;;2.88;2.38;;;;;;;22.18;43.37;102128.22;4868281;26;20015;-53
2024/04/12 01:18:22;;;;;;;2.83;2.40;;;;;;;22.18;43.40;102128.22;4868778;26;20117;-55
2024/04/12 01:20:34;;;;;;;2.40;1.90;;;;;;;22.16;43.62;102128.56;4870589;26;20944;-55
2024/04/12 01:22:45;;;;;;;2.53;1.90;;;;;;;22.18;43.56;102125.34;4867772;26;20019;-52
2024/04/12 01:24:57;;;;;;;2.30;2.00;;;;;;;22.18;43.50;102128.22;4868164;26;20004;-51
2024/04/12 01:27:07;;;;;;;2.75;2.00;;;;;;;22.16;43.48;102128.56;4872655;26;20023;-52
2024/04/12 01:29:19;;;;;;;2.53;1.80;;;;;;;22.17;43.35;102126.53;4868547;26;20015;-56
2024/04/12 01:31:34;;;;;;;1.92;1.67;;;;;;;22.15;43.43;102115.34;4867202;26;20097;-51
2024/04/12 01:33:50;;;;;;;2.13;1.80;;;;;;;22.16;43.70;102128.56;4869403;26;20725;-51
2024/04/12 01:36:05;;;;;;;;;;;;;;;22.16;43.52;102125.69;4870176;26;20019;-54
2024/04/12 01:38:18;;;;;;;2.53;1.83;;;;;;;22.16;43.74;102122.81;4874625;26;20002;-55
2024/04/12 01:40:28;;;;;;;2.45;1.83;;;;;;;22.15;43.71;102109.59;4869642;26;20011;-52
2024/04/12 01:42:43;;;;;;;3.45;1.80;;;;;;;22.14;43.57;102110.81;4868773;26;20612;-54
2024/04/12 01:47:27;;;;;;;1.80;1.60;;;;;;;22.15;43.63;102120.28;4868873;26;20015;-54
2024/04/12 01:49:43;;;;;;;2.72;1.80;;;;;;;22.14;43.47;102118.56;4870256;26;20011;-51
2024/04/12 01:51:56;;;;;;;2.58;1.60;;;;;;;22.14;43.57;102112.81;4867097;26;20012;-52
2024/04/12 01:54:17;;;;;;;2.22;1.52;;;;;;;22.14;43.46;102121.44;4868501;26;20096;-52
2024/04/12 01:56:30;;;;;;;2.08;1.65;;;;;;;22.14;43.78;102112.81;4866622;26;20004;-51
2024/04/12 01:58:42;;;;;;;1.88;1.50;;;;;;;22.12;43.74;102115.19;4869790;26;20012;-54
2024/04/12 02:00:52;;;;;;;1.58;1.25;;;;;;;22.13;43.82;102117.75;4866286;26;20864;-56
2024/04/12 02:03:03;;;;;;;2.00;1.60;;;;;;;22.13;43.73;102123.50;4867600;26;22987;-54
2024/04/12 02:05:13;;;;;;;1.83;1.63;;;;;;;22.13;43.71;102116.91;4868721;26;20066;-55
2024/04/12 02:07:27;;;;;;;2.08;1.40;;;;;;;22.12;43.93;102113.16;4843627;26;20486;-53
2024/04/12 02:09:40;;;;;;;2.10;1.58;;;;;;;22.12;43.91;102104.53;4868685;26;20011;-53
2024/04/12 02:11:53;;;;;;;1.80;1.40;;;;;;;22.12;43.80;102110.28;4867385;26;20111;-53
2024/04/12 02:14:03;;;;;;;2.25;1.48;;;;;;;22.12;43.77;102104.53;4866694;26;20022;-51
2024/04/12 02:16:14;;;;;;;1.77;1.60;;;;;;;22.11;43.99;102114.38;4865227;26;20384;-52
2024/04/12 02:18:32;;;;;;;1.95;1.45;;;;;;;22.13;43.83;102116.91;4867371;26;20103;-53
2024/04/12 02:20:45;;;;;;;2.25;1.58;;;;;;;22.12;43.86;102112.31;4865876;26;20023;-55
2024/04/12 02:22:56;;;;;;;1.75;1.30;;;;;;;22.11;43.68;102108.63;4868680;26;20021;-51
2024/04/12 02:25:13;;;;;;;1.30;1.20;;;;;;;22.11;43.94;102102.00;4866358;26;20998;-54
2024/04/12 02:27:29;;;;;;;1.30;1.20;;;;;;;22.10;43.80;102101.16;4865946;26;20478;-52
2024/04/12 02:29:41;;;;;;;1.70;1.38;;;;;;;22.10;44.05;102091.72;4868354;26;20022;-51
2024/04/12 02:31:51;;;;;;;2.15;1.30;;;;;;;22.10;44.35;102085.97;4866912;26;20023;-54
2024/04/12 02:34:02;;;;;;;1.67;1.35;;;;;;;22.10;44.16;102089.66;4866078;26;20013;-55
2024/04/12 02:36:14;;;;;;;1.63;1.25;;;;;;;22.08;44.16;102092.06;4867249;26;20022;-56
2024/04/12 02:38:28;;;;;;;1.45;1.20;;;;;;;22.10;44.18;102092.53;4868540;26;20011;-54
2024/04/12 02:40:41;;;;;;;1.48;1.30;;;;;;;22.07;44.22;102089.50;4866591;26;20093;-53
2024/04/12 02:42:52;;;;;;;2.15;1.35;;;;;;;22.08;43.97;102085.44;4865562;26;20012;-54
2024/04/12 02:45:05;;;;;;;1.70;1.50;;;;;;;22.07;44.10;102087.47;4867468;26;20036;-54
2024/04/12 02:47:15;;;;;;;1.95;1.40;;;;;;;22.07;43.85;102090.34;4865150;26;20100;-54
2024/04/12 02:49:25;;;;;;;2.42;1.60;;;;;;;22.08;44.36;102088.31;4866002;26;20023;-52
2024/04/12 02:51:37;;;;;;;1.48;1.30;;;;;;;22.07;43.47;102084.59;4867082;26;20018;-51
2024/04/12 02:53:50;;;;;;;1.73;1.20;;;;;;;22.09;43.99;102093.72;4867922;26;20066;-54
2024/04/12 02:56:03;;;;;;;2.45;1.40;;;;;;;22.07;44.20;102080.91;4867154;26;20028;-54
2024/04/12 02:58:14;;;;;;;1.60;1.20;;;;;;;22.06;43.83;102082.91;4865615;26;20023;-55
2024/04/12 03:00:25;;;;;;;1.73;1.38;;;;;;;22.07;44.16;102078.00;4866950;26;20018;-55
2024/04/12 03:02:36;;;;;;;1.45;1.30;;;;;;;22.06;44.15;102077.16;4866870;26;21787;-56
2024/04/12 03:04:47;;;;;;;2.08;1.30;;;;;;;22.05;44.33;102069.72;4865287;26;20011;-56
2024/04/12 03:07:09;;;;;;;1.98;1.40;;;;;;;22.06;44.32;102064.81;4868779;26;20011;-52
2024/04/12 03:09:19;;;;;;;1.55;1.20;;;;;;;22.06;44.29;102076.31;4866467;26;20008;-54
2024/04/12 03:11:34;;;;;;;1.55;1.30;;;;;;;22.06;44.38;102068.53;4865904;26;21936;-53
2024/04/12 03:13:45;;;;;;;2.55;1.20;;;;;;;22.06;44.06;102064.81;4868287;26;21215;-52
2024/04/12 03:15:57;;;;;;;1.77;1.38;;;;;;;22.05;43.92;102051.63;4872215;26;20908;-54
2024/04/12 03:18:08;;;;;;;1.77;1.40;;;;;;;22.05;44.04;102063.13;4866005;26;20023;-53
2024/04/12 03:20:19;;;;;;;1.92;1.20;;;;;;;22.06;44.14;102061.94;4867041;26;20022;-53
2024/04/12 03:22:30;;;;;;;2.33;1.30;;;;;;;22.04;44.32;102056.53;4868964;26;20455;-56
2024/04/12 03:24:41;;;;;;;1.30;1.20;;;;;;;22.04;44.49;102067.19;4866583;26;20074;-54
2024/04/12 03:26:54;;;;;;;1.70;1.20;;;;;;;22.03;44.49;102063.47;4866905;26;20008;-51
2024/04/12 03:29:05;;;;;;;2.30;1.25;;;;;;;22.03;44.34;102066.34;4864949;26;20085;-56
2024/04/12 03:31:17;;;;;;;2.00;1.20;;;;;;;22.03;44.50;102069.22;4867125;26;20015;-51
2024/04/12 03:33:28;;;;;;;1.77;1.20;;;;;;;22.03;44.39;102066.34;4868996;26;20068;-51
2024/04/12 03:35:38;;;;;;;1.55;1.30;;;;;;;22.03;44.36;102059.75;4867366;26;20450;-55
2024/04/12 03:40:18;;;;;;;1.38;1.20;;;;;;;22.03;44.62;102051.97;4864311;26;20017;-53
2024/04/12 03:42:29;;;;;;;1.63;1.30;;;;;;;22.02;44.72;102050.25;4866633;26;20011;-51
2024/04/12 03:44:42;;;;;;;1.60;1.20;;;;;;;22.03;44.84;102054.00;4867502;26;20026;-51
2024/04/12 03:46:53;;;;;;;2.00;1.23;;;;;;;22.02;44.85;102053.13;4862309;26;20015;-55
2024/04/12 03:49:03;;;;;;;1.40;1.23;;;;;;;22.02;44.89;102049.44;4872170;26;20003;-52
2024/04/12 03:51:13;;;;;;;1.70;1.25;;;;;;;22.01;44.72;102057.22;4866964;26;20651;-51
2024/04/12 03:53:28;;;;;;;1.92;1.20;;;;;;;22.01;44.77;102068.72;4867079;26;21115;-52
2024/04/12 03:55:44;;;;;;;1.38;1.17;;;;;;;22.02;44.77;102064.63;4866349;26;20726;-50
2024/04/12 03:57:54;;;;;;;1.50;1.10;;;;;;;22.01;44.72;102065.84;4865947;26;20011;-51
2024/04/12 04:00:13;;;;;;;1.20;1.10;;;;;;;22.00;44.88;102067.03;4864278;26;20012;-53
2024/04/12 04:02:25;;;;;;;1.55;1.13;;;;;;;22.01;44.38;102068.72;4866364;26;20011;-54
2024/04/12 04:04:44;;;;;;;2.22;1.40;;;;;;;22.00;44.57;102067.03;4865075;26;20008;-56
2024/04/12 04:06:55;;;;;;;1.55;1.23;;;;;;;22.00;44.62;102067.03;4862888;26;20987;-56
2024/04/12 04:09:05;;;;;;;1.77;1.00;;;;;;;22.00;44.60;102066.19;4867760;26;20015;-52
2024/04/12 04:11:16;;;;;;;1.52;1.30;;;;;;;22.00;44.47;102063.31;4866110;26;20015;-55
2024/04/12 04:13:28;;;;;;;2.40;1.38;;;;;;;22.00;44.12;102071.94;4866875;26;20024;-53
2024/04/12 04:15:49;;;;;;;2.55;1.55;;;;;;;21.99;44.20;102059.56;4864530;26;20628;-53
2024/04/12 04:18:02;;;;;;;1.70;1.35;;;;;;;21.99;43.90;102059.56;4867386;26;20067;-56
2024/04/12 04:20:13;;;;;;;1.88;1.40;;;;;;;21.99;44.36;102056.69;4868720;26;20003;-51
2024/04/12 04:24:34;;;;;;;2.28;1.40;;;;;;;21.99;43.95;102065.31;4867274;26;20022;-51
2024/04/12 04:26:45;;;;;;;1.55;1.10;;;;;;;21.98;44.21;102066.53;4870107;26;20383;-51
2024/04/12 04:28:55;;;;;;;1.58;1.40;;;;;;;21.97;44.37;102067.72;4867242;26;21549;-54
2024/04/12 04:31:06;;;;;;;1.88;1.50;;;;;;;21.98;43.63;102068.53;4868624;26;20015;-52
2024/04/12 04:33:16;;;;;;;1.83;1.45;;;;;;;21.98;43.67;102069.41;4875994;26;20022;-53
2024/04/12 04:35:27;;;;;;;2.00;1.63;;;;;;;21.97;43.79;102073.47;4870741;26;20048;-57
2024/04/12 04:37:37;;;;;;;2.15;1.55;;;;;;;21.97;43.64;102067.72;4869603;26;20007;-55
2024/04/12 04:39:48;;;;;;;2.17;1.63;;;;;;;21.96;43.62;102071.75;4865925;26;20637;-55
2024/04/12 04:41:59;;;;;;;2.22;1.67;;;;;;;21.96;43.53;102074.63;4872979;26;20004;-55
2024/04/12 04:44:09;;;;;;;2.50;1.83;;;;;;;21.96;43.46;102083.25;4873906;26;20019;-54
2024/04/12 04:46:26;;;;;;;2.97;1.75;;;;;;;21.96;43.54;102080.38;4867352;26;20003;-55
2024/04/12 04:48:37;;;;;;;2.47;2.00;;;;;;;21.96;44.12;102079.56;4869750;26;20008;-54
2024/04/12 04:50:48;;;;;;;2.15;1.90;;;;;;;21.96;43.69;102077.50;4870473;26;20039;-54
2024/04/12 04:53:02;;;;;;;2.40;1.90;;;;;;;21.95;43.65;102070.09;4867668;26;20868;-54
2024/04/12 04:55:13;;;;;;;2.83;1.90;;;;;;;21.96;43.50;102073.81;4866920;26;20018;-54
2024/04/12 04:57:24;;;;;;;2.35;1.73;;;;;;;21.95;43.81;102070.09;4866977;26;20888;-54
2024/04/12 04:59:35;;;;;;;2.42;1.80;;;;;;;21.93;44.11;102060.09;4868715;26;20007;-54
2024/04/12 05:01:48;;;;;;;3.10;2.20;;;;;;;21.94;43.54;102059.78;4868768;26;20873;-53
2024/04/12 05:03:58;;;;;;;2.25;1.83;;;;;;;21.95;43.82;102069.22;4868211;26;20070;-53
2024/04/12 05:06:12;;;;;;;3.03;1.80;;;;;;;21.95;43.54;102063.47;4867909;26;20007;-54
2024/04/12 05:08:23;;;;;;;2.65;2.28;;;;;;;21.94;43.58;102065.53;4867020;26;20910;-56
2024/04/12 05:10:34;;;;;;;2.60;1.90;;;;;;;21.94;43.58;102071.28;4866229;26;20010;-56
2024/04/12 05:12:44;;;;;;;2.80;2.22;;;;;;;21.94;43.64;102068.41;4868315;26;20444;-55
2024/04/12 05:14:55;;;;;;;2.50;2.10;;;;;;;21.94;43.69;102074.16;4868741;26;20007;-52
2024/04/12 05:17:07;;;;;;;3.35;2.00;;;;;;;21.95;43.70;102072.09;4871684;26;20359;-53
2024/04/12 05:19:25;;;;;;;2.92;2.20;;;;;;;21.93;43.59;102074.47;4866609;26;20018;-51
2024/04/12 05:21:40;;;;;;;3.17;2.20;;;;;;;21.93;43.51;102072.44;4867885;26;20004;-54
2024/04/12 05:23:53;;;;;;;2.53;2.10;;;;;;;21.93;43.36;102081.06;4865083;26;20022;-51
2024/04/12 05:26:05;;;;;;;3.53;2.72;;;;;;;21.93;43.54;102085.97;4884160;26;20064;-55
2024/04/12 05:28:18;;;;;;;3.47;2.60;;;;;;;21.92;43.55;102088.00;4867666;26;20008;-55
2024/04/12 05:30:36;;;;;;;3.83;2.70;;;;;;;21.92;43.42;102082.25;4866836;26;21121;-55
2024/04/12 05:32:46;;;;;;;3.47;2.80;;;;;;;21.94;43.63;102093.44;4868090;26;20012;-55
2024/04/12 05:34:58;;;;;;;3.40;2.97;;;;;;;21.92;43.56;102082.25;4873267;26;20019;-55
2024/04/12 05:37:08;;;;;;;4.15;2.90;;;;;;;21.91;43.52;102074.81;4866518;26;20003;-55
2024/04/12 05:39:19;;;;;;;3.38;2.80;;;;;;;21.92;43.61;102070.78;4868816;26;20008;-55
2024/04/12 05:41:32;;;;;;;3.55;2.70;;;;;;;21.92;43.63;102070.78;4865788;26;20015;-55
2024/04/12 05:43:42;;;;;;;3.08;2.50;;;;;;;21.92;43.67;102070.78;4865920;26;20007;-55
2024/04/12 05:45:55;;;;;;;2.90;2.53;;;;;;;21.92;43.37;102061.28;4869090;26;20019;-55
2024/04/12 05:48:12;;;;;;;3.55;2.60;;;;;;;21.92;43.50;102058.41;4866754;26;20023;-54
2024/04/12 05:50:25;;;;;;;2.70;2.13;;;;;;;21.90;43.60;102053.00;4866157;26;20055;-55
2024/04/12 05:52:36;;;;;;;3.05;2.50;;;;;;;21.91;43.83;102051.00;4864664;26;20023;-58
2024/04/12 05:54:47;;;;;;;2.40;2.10;;;;;;;21.90;43.63;102046.41;4865986;26;20018;-55
2024/04/12 05:56:58;;;;;;;2.55;2.08;;;;;;;21.89;43.56;102048.47;4868806;26;20023;-55
2024/04/12 05:59:13;;;;;;;2.60;2.10;;;;;;;21.89;43.80;102044.72;4868349;26;20012;-55
2024/04/12 06:01:24;;;;;;;2.58;2.15;;;;;;;21.88;43.70;102052.50;4866534;26;20022;-55
2024/04/12 06:03:42;;;;;;;2.65;2.13;;;;;;;21.90;43.80;102064.50;4867440;26;20008;-55
2024/04/12 06:05:55;;;;;;;2.70;2.22;;;;;;;21.90;43.47;102053.00;4869369;26;20103;-55
2024/04/12 06:08:05;;;;;;;2.95;2.30;;;;;;;21.90;43.74;102055.88;4869137;26;20015;-54
2024/04/12 06:10:17;;;;;;;3.00;2.35;;;;;;;21.89;43.56;102054.19;4867596;26;20432;-54
2024/04/12 06:12:33;;;;;;;3.08;2.60;;;;;;;21.89;43.66;102054.19;4866422;26;20105;-52
2024/04/12 06:14:45;;;;;;;2.92;2.30;;;;;;;21.89;44.01;102051.31;4868231;26;20012;-55
2024/04/12 06:16:55;;;;;;;2.80;2.38;;;;;;;21.88;43.63;102051.66;4869945;26;20586;-54
2024/04/12 06:19:06;;;;;;;2.60;2.15;;;;;;;21.87;43.88;102050.81;4868455;26;20022;-53
2024/04/12 06:21:18;;;;;;;3.03;2.40;;;;;;;21.88;44.37;102058.25;4867333;26;20007;-55
2024/04/12 06:23:29;;;;;;;2.53;2.20;;;;;;;21.87;43.87;102062.31;4865431;26;20012;-54
2024/04/12 06:25:45;;;;;;;1.70;1.30;;;;;;;21.87;44.75;102052.84;4866450;26;20012;-55
2024/04/12 06:27:56;;;;;;;2.00;1.77;;;;;;;21.88;44.58;102052.50;4865771;26;20007;-54
2024/04/12 06:30:07;;;;;;;1.50;1.20;;;;;;;21.89;45.22;102056.22;4868755;26;20007;-54
2024/04/12 06:32:18;;;;;;;2.10;1.58;;;;;;;21.88;45.30;102057.41;4868578;26;21074;-53
2024/04/12 06:34:37;;;;;;;2.05;1.30;;;;;;;21.87;45.55;102056.56;4870619;26;20963;-55
2024/04/12 06:36:55;;;;;;;2.05;1.40;;;;;;;21.89;44.77;102059.09;4866947;26;20008;-52
2024/04/12 06:39:06;;;;;;;1.63;1.30;;;;;;;21.89;45.03;102051.31;4864306;26;20019;-56
2024/04/12 06:41:16;;;;;;;2.00;1.50;;;;;;;21.88;45.22;102052.50;4867484;26;20040;-53
2024/04/12 06:43:27;;;;;;;1.55;1.25;;;;;;;21.87;44.89;102050.81;4883275;26;20039;-55
2024/04/12 06:45:44;;;;;;;2.38;1.90;;;;;;;21.87;44.31;102050.81;4868645;26;20018;-55
2024/04/12 06:47:56;;;;;;;2.22;1.70;;;;;;;21.88;44.10;102058.25;4866076;26;20078;-52
2024/04/12 06:50:08;;;;;;;2.22;1.48;;;;;;;21.88;44.44;102051.66;4867725;26;20022;-56
2024/04/12 06:52:22;;;;;;;1.77;1.50;;;;;;;21.88;44.85;102058.25;4870198;26;20033;-51
2024/04/12 06:54:35;;;;;;;1.90;1.60;;;;;;;21.88;44.03;102051.66;4866579;26;20018;-52
2024/04/12 06:56:48;;;;;;;1.85;1.20;;;;;;;21.87;45.26;102056.56;4853223;26;21812;-51
2024/04/12 06:58:58;;;;;;;1.55;1.27;;;;;;;21.87;45.31;102059.44;4868393;26;20011;-55
2024/04/12 07:01:12;;;;;;;1.52;1.40;;;;;;;21.87;44.37;102053.69;4869129;26;20011;-55
2024/04/12 07:03:27;;;;;;;1.80;1.55;;;;;;;21.88;44.33;102060.28;4866152;26;20372;-55
2024/04/12 07:05:39;;;;;;;1.40;1.25;;;;;;;21.88;44.55;102058.25;4868595;26;20016;-55
2024/04/12 07:07:51;;;;;;;1.88;1.50;;;;;;;21.89;44.38;102062.84;4867918;26;20016;-56
2024/04/12 07:10:09;;;;;;;2.17;1.60;;;;;;;21.88;43.82;102064.00;4867641;26;20018;-55
2024/04/12 07:12:19;;;;;;;2.33;1.70;;;;;;;21.88;43.87;102066.03;4868836;26;20007;-53
2024/04/12 07:14:30;;;;;;;1.83;1.50;;;;;;;21.88;43.77;102064.00;4866586;26;20033;-55
2024/04/12 07:16:42;;;;;;;2.70;1.88;;;;;;;21.88;43.77;102069.75;4867320;26;20047;-54
2024/04/12 07:18:53;;;;;;;2.75;1.73;;;;;;;21.86;43.80;102066.38;4866085;26;20081;-54
2024/04/12 07:21:15;;;;;;;2.25;1.90;;;;;;;21.88;44.07;102075.50;4866516;26;20098;-55
2024/04/12 07:23:31;;;;;;;2.35;1.95;;;;;;;21.88;43.85;102069.75;4864399;26;20011;-55
2024/04/12 07:25:47;;;;;;;3.15;2.00;;;;;;;21.86;44.16;102066.38;4870823;26;20023;-54
2024/04/12 07:28:00;;;;;;;2.35;1.95;;;;;;;21.89;44.16;102064.84;4871285;26;20037;-57
2024/04/12 07:30:13;;;;;;;2.53;2.10;;;;;;;21.88;44.33;102069.75;4866105;26;20069;-55
2024/04/12 07:32:25;;;;;;;2.60;1.95;;;;;;;21.87;44.42;102076.69;4869778;26;20012;-53
2024/04/12 07:34:48;;;;;;;2.85;2.00;;;;;;;21.88;44.43;102074.66;4867331;26;20018;-52
2024/04/12 07:37:00;;;;;;;2.80;2.25;;;;;;;21.86;44.37;102072.13;4866913;26;20061;-53
2024/04/12 07:39:15;;;;;;;3.40;2.33;;;;;;;21.87;44.26;102072.97;4865852;26;20008;-55
2024/04/12 07:41:25;;;;;;;3.20;2.47;;;;;;;21.87;44.36;102079.56;4864579;26;20678;-54
2024/04/12 07:43:42;;;;;;;3.47;2.50;;;;;;;21.88;44.49;102080.41;4865382;26;20022;-63
2024/04/12 07:45:56;;;;;;;3.30;2.53;;;;;;;21.88;44.45;102077.53;4867851;26;20004;-61
2024/04/12 07:50:33;;;;;;;2.92;2.38;;;;;;;21.89;44.12;102077.19;4865925;26;20085;-60
2024/04/12 07:52:44;;;;;;;3.00;2.38;;;;;;;21.91;44.34;102076.84;4865517;26;21351;-61
2024/04/12 07:54:54;;;;;;;3.25;2.20;;;;;;;21.89;44.21;102071.44;4867654;26;20143;-64
2024/04/12 07:57:07;;;;;;;2.95;2.30;;;;;;;21.91;44.11;102068.25;4864994;26;20486;-65
2024/04/12 07:59:25;;;;;;;3.05;2.40;;;;;;;21.92;44.19;102070.78;4864617;26;20016;-62
2024/04/12 08:01:37;;;;;;;3.10;2.60;;;;;;;21.93;44.30;102078.19;4863770;26;20058;-64
2024/04/12 08:03:56;;;;;;;3.08;2.40;;;;;;;21.93;44.21;102072.44;4865845;26;20015;-54
2024/04/12 08:06:18;;;;;;;3.05;2.70;;;;;;;21.94;44.33;102079.91;4865339;26;20008;-53
2024/04/12 08:08:31;;;;;;;4.13;2.58;;;;;;;21.94;44.53;102081.94;4864253;26;20113;-54
2024/04/12 08:10:42;;;;;;;3.13;2.47;;;;;;;21.94;44.22;102079.06;4867456;26;20019;-55
2024/04/12 08:12:57;;;;;;;3.38;2.58;;;;;;;21.94;44.30;102081.94;4866278;26;20066;-55
2024/04/12 08:15:07;;;;;;;2.72;2.33;;;;;;;21.93;44.25;102077.34;4865599;26;20008;-56
2024/04/12 08:17:23;;;;;;;4.03;2.95;;;;;;;21.92;44.60;102082.25;4868263;26;20036;-56
2024/04/12 08:19:45;;;;;;;3.30;2.58;;;;;;;21.92;44.50;102082.25;4865123;26;20023;-55
2024/04/12 08:21:55;;;;;;;3.13;2.42;;;;;;;21.92;44.47;102081.41;4865645;26;20025;-56
2024/04/12 08:24:09;;;;;;;3.08;2.47;;;;;;;21.92;44.62;102096.66;4867993;26;20026;-53
2024/04/12 08:26:27;;;;;;;3.40;2.20;;;;;;;21.91;44.76;102094.94;4862135;26;20049;-52
2024/04/12 08:28:40;;;;;;;2.90;2.20;;;;;;;21.91;45.04;102100.69;4867103;26;20019;-53
2024/04/12 08:30:55;;;;;;;2.65;2.22;;;;;;;21.90;44.98;102107.63;4865395;26;20018;-54
2024/04/12 08:33:22;;;;;;;2.53;2.13;;;;;;;21.90;45.08;102110.50;4866027;26;20997;-53
2024/04/12 08:35:36;;;;;;;2.72;2.00;;;;;;;21.90;45.24;102104.75;4865932;26;20012;-54
2024/04/12 08:37:47;;;;;;;2.92;1.90;;;;;;;21.91;45.12;102111.34;4862853;26;20054;-55
2024/04/12 08:40:08;;;;;;;2.05;1.70;;;;;;;21.89;45.06;102111.69;4864076;26;20012;-51
2024/04/12 08:42:19;;;;;;;2.08;1.70;;;;;;;21.90;45.23;102116.25;4867372;26;20972;-53
2024/04/12 08:44:35;;;;;;;2.22;1.77;;;;;;;21.91;45.51;102114.22;4863447;26;20066;-55
2024/04/12 08:46:49;;;;;;;2.60;1.70;;;;;;;21.92;45.70;102122.50;4864964;26;20022;-54
2024/04/12 08:49:03;;;;;;;2.20;1.52;;;;;;;21.90;45.64;102115.41;4864858;26;20023;-54
2024/04/12 08:51:21;;;;;;;1.73;1.58;;;;;;;21.89;45.59;102114.56;4864403;26;20007;-55
2024/04/12 08:53:33;;;;;;;2.60;1.45;;;;;;;21.90;45.65;102106.78;4867080;26;20007;-54
2024/04/12 08:55:44;;;;;;;2.40;1.80;;;;;;;21.90;46.12;102103.91;4864376;26;20026;-55
2024/04/12 08:58:00;;;;;;;2.38;1.40;;;;;;;21.90;45.96;102095.28;4867936;26;20026;-52
2024/04/12 09:00:21;;;;;;;2.30;1.63;;;;;;;21.90;46.26;102101.03;4869403;26;20104;-53
2024/04/12 09:02:48;;;;;;;2.05;1.40;;;;;;;21.90;45.95;102101.03;4864187;26;20023;-53
2024/04/12 09:04:58;;;;;;;2.10;1.40;;;;;;;21.88;45.91;102092.75;4864941;26;20612;-53
2024/04/12 09:07:12;;;;;;;1.88;1.40;;;;;;;21.89;45.95;102094.44;4865390;26;20022;-55
2024/04/12 09:09:22;;;;;;;1.77;1.40;;;;;;;21.89;46.38;102090.72;4863032;26;20626;-55
2024/04/12 09:11:33;;;;;;;1.83;1.50;;;;;;;21.90;46.46;102089.53;4866641;26;20023;-56
2024/04/12 09:13:46;;;;;;;1.95;1.40;;;;;;;21.89;46.59;102082.09;4869864;26;20008;-56
2024/04/12 09:16:02;;;;;;;1.90;1.60;;;;;;;21.89;46.31;102097.31;4865288;26;20015;-54
2024/04/12 09:18:14;;;;;;;3.03;2.20;;;;;;;21.89;46.60;102096.47;4864506;26;20055;-56
2024/04/12 09:20:35;;;;;;;2.65;2.10;;;;;;;21.90;46.19;102099.00;4863599;26;20958;-55
2024/04/12 09:22:48;;;;;;;2.75;2.17;;;;;;;21.89;46.54;102093.59;4864518;26;20078;-54
2024/04/12 09:25:14;;;;;;;2.10;1.80;;;;;;;21.89;46.52;102093.59;4865414;26;20011;-54
2024/04/12 09:27:34;;;;;;;2.10;1.70;;;;;;;21.90;46.29;102095.28;4868165;26;20621;-53
2024/04/12 09:29:54;;;;;;;2.75;2.10;;;;;;;21.89;46.24;102090.72;4868139;26;20023;-54
2024/04/12 09:34:39;;;;;;;2.85;2.20;;;;;;;21.89;46.55;102091.56;4867582;26;20090;-55
2024/04/12 09:36:56;;;;;;;2.65;1.98;;;;;;;21.89;46.63;102088.69;4867012;26;20008;-54
2024/04/12 09:39:14;;;;;;;2.15;1.95;;;;;;;21.89;46.82;102088.69;4868327;26;20075;-52
2024/04/12 09:41:31;;;;;;;2.65;2.00;;;;;;;21.90;46.81;102089.53;4867819;26;20015;-55
2024/04/12 09:43:47;;;;;;;2.45;1.77;;;;;;;21.89;46.97;102080.06;4866788;26;20011;-56
2024/04/12 09:46:08;;;;;;;2.60;1.60;;;;;;;21.90;46.92;102078.03;4866477;26;20012;-53
2024/04/12 10:39:13;;;;;;;2.05;1.40;;;;;;;22.62;46.66;102075.13;4867072;26;20120;-55
2024/04/12 10:41:26;;;;;;;2.03;1.48;;;;;;;22.64;46.68;102075.63;4865244;26;20129;-55
2024/04/12 10:43:41;;;;;;;1.23;0.98;;;;;;;22.63;46.77;102071.91;4866195;26;20008;-53
2024/04/12 10:45:52;;;;;;;2.70;1.30;;;;;;;22.65;46.58;102071.56;4868143;26;20011;-56
2024/04/12 10:48:04;;;;;;;1.48;1.30;;;;;;;22.67;46.57;102060.56;4871199;26;20020;-54
2024/04/12 10:50:15;;;;;;;1.60;1.05;;;;;;;22.66;46.63;102062.56;4867810;26;20007;-53
2024/04/12 10:52:28;;;;;;;1.95;1.30;;;;;;;22.68;46.62;102062.22;4867814;26;20011;-54
2024/04/12 10:54:42;;;;;;;2.75;1.30;;;;;;;22.68;46.62;102059.34;4869664;26;20095;-55
2024/04/12 10:56:53;;;;;;;2.13;1.20;;;;;;;22.70;46.65;102059.84;4865300;26;20018;-53
2024/04/12 10:59:06;;;;;;;1.80;1.27;;;;;;;22.70;46.54;102051.22;4866347;26;20100;-55
2024/04/12 11:01:16;;;;;;;1.70;1.20;;;;;;;22.72;46.75;102060.34;4867138;26;20003;-55
2024/04/12 11:03:29;;;;;;;1.60;1.10;;;;;;;22.72;46.74;102043.91;4866649;26;20008;-54
2024/04/12 11:05:46;;;;;;;1.40;1.23;;;;;;;22.73;46.59;102050.53;4884808;26;21304;-56
2024/04/12 11:07:58;;;;;;;1.88;1.40;;;;;;;22.72;46.66;102061.19;4865595;26;20012;-55
2024/04/12 11:10:22;;;;;;;2.55;1.40;;;;;;;22.73;46.57;102056.28;4867482;26;20016;-54
2024/04/12 11:12:50;;;;;;;1.58;1.17;;;;;;;22.71;46.52;102048.00;4866029;26;20049;-55
2024/04/12 11:31:07;;;;;;;1.75;1.05;;;;;;;22.66;46.75;102050.25;4868196;26;20077;-55
2024/04/12 11:33:05;;;;;;;1.50;1.20;;;;;;;22.13;48.61;102036.38;4869451;26;20019;-55
2024/04/12 11:35:18;;;;;;;1.65;1.10;;;;;;;22.11;48.80;102027.25;4867191;26;20022;-56
2024/04/12 11:37:29;;;;;;;1.38;1.10;;;;;;;22.11;49.36;102035.88;4864707;26;20978;-56